createdAt,value
2022-12-08T00:00:10.491Z,18.47
2022-12-08T00:02:44.609Z,17.87
2022-12-08T00:05:31.059Z,19.00
2022-12-08T00:08:17.300Z,18.40
2022-12-08T00:10:49.441Z,19.03
2022-12-08T00:13:18.793Z,18.77
2022-12-08T00:15:48.913Z,18.07
2022-12-08T00:18:17.620Z,17.90
2022-12-08T00:20:46.296Z,18.67
2022-12-08T00:23:14.988Z,18.83
2022-12-08T00:25:43.710Z,18.60
2022-12-08T00:28:12.452Z,18.70
2022-12-08T00:30:41.738Z,19.20
2022-12-08T00:33:12.486Z,18.97
2022-12-08T00:35:43.227Z,19.17
2022-12-08T00:38:12.247Z,18.27
2022-12-08T00:40:45.711Z,19.23
2022-12-08T00:43:14.682Z,19.73
2022-12-08T00:45:44.519Z,18.93
2022-12-08T00:48:14.812Z,19.70
2022-12-08T00:50:43.442Z,19.10
2022-12-08T00:53:12.005Z,19.83
2022-12-08T00:55:40.665Z,19.43
2022-12-08T00:58:09.283Z,18.80
2022-12-08T01:00:37.957Z,18.83
2022-12-08T01:03:06.793Z,19.87
2022-12-08T01:05:36.987Z,19.47
2022-12-08T01:08:06.946Z,19.47
2022-12-08T01:10:37.028Z,18.83
2022-12-08T01:13:06.426Z,19.50
2022-12-08T01:15:35.181Z,19.27
2022-12-08T01:18:03.918Z,19.73
2022-12-08T01:20:32.657Z,19.93
2022-12-08T01:23:03.081Z,20.40
2022-12-08T01:25:31.796Z,19.10
2022-12-08T01:28:00.540Z,19.63
2022-12-08T01:30:29.253Z,20.47
2022-12-08T01:32:58.273Z,20.00
2022-12-08T01:35:26.940Z,20.47
2022-12-08T01:37:55.687Z,20.57
2022-12-08T01:40:25.880Z,19.47
2022-12-08T01:42:54.676Z,19.60
2022-12-08T01:45:26.178Z,19.80
2022-12-08T01:47:59.254Z,20.37
2022-12-08T01:50:29.699Z,19.87
2022-12-08T01:53:02.840Z,20.27
2022-12-08T01:55:36.917Z,19.07
2022-12-08T01:58:13.398Z,18.87
2022-12-08T02:00:42.271Z,19.03
2022-12-08T02:03:15.769Z,19.17
2022-12-08T02:05:45.166Z,19.27
2022-12-08T02:08:15.497Z,19.90
2022-12-08T02:10:45.751Z,20.00
2022-12-08T02:13:18.317Z,19.70
2022-12-08T02:15:56.407Z,18.13
2022-12-08T02:18:39.604Z,19.33
2022-12-08T02:21:12.704Z,19.33
2022-12-08T02:23:52.421Z,19.63
2022-12-08T02:26:54.540Z,20.10
2022-12-08T02:29:40.974Z,20.53
2022-12-08T02:32:33.646Z,20.37
2022-12-08T02:35:06.653Z,20.57
2022-12-08T02:37:39.759Z,20.73
2022-12-08T02:40:15.230Z,21.43
2022-12-08T02:42:48.002Z,21.07
2022-12-08T02:45:23.482Z,21.97
2022-12-08T02:47:53.913Z,21.53
2022-12-08T02:50:24.181Z,21.50
2022-12-08T02:52:52.799Z,20.47
2022-12-08T02:55:27.257Z,20.83
2022-12-08T02:58:30.857Z,21.43
2022-12-08T03:01:16.579Z,20.10
2022-12-08T03:03:52.531Z,19.73
2022-12-08T03:06:30.815Z,20.13
2022-12-08T03:09:04.189Z,19.73
2022-12-08T03:11:39.780Z,19.67
2022-12-08T03:14:11.617Z,18.87
2022-12-08T03:16:42.842Z,19.17
2022-12-08T03:19:18.060Z,18.93
2022-12-08T03:21:52.631Z,19.00
2022-12-08T03:24:24.474Z,19.00
2022-12-08T03:26:58.249Z,18.43
2022-12-08T03:29:27.537Z,19.30
2022-12-08T03:31:59.578Z,18.33
2022-12-08T03:34:31.153Z,19.13
2022-12-08T03:37:02.952Z,19.03
2022-12-08T03:39:31.669Z,18.90
2022-12-08T03:42:00.256Z,18.43
2022-12-08T03:44:28.840Z,19.23
2022-12-08T03:46:57.479Z,19.67
2022-12-08T03:49:26.046Z,18.63
2022-12-08T03:51:54.665Z,19.07
2022-12-08T03:54:25.375Z,18.03
2022-12-08T03:56:54.065Z,18.23
2022-12-08T03:59:22.703Z,18.67
2022-12-08T04:01:51.468Z,19.70
2022-12-08T04:04:20.303Z,18.27
2022-12-08T04:06:49.021Z,17.80
2022-12-08T04:09:18.923Z,17.37
2022-12-08T04:11:49.117Z,17.80
2022-12-08T04:14:17.766Z,17.30
2022-12-08T04:16:46.425Z,17.13
2022-12-08T04:19:15.485Z,17.50
2022-12-08T04:21:44.261Z,17.33
2022-12-08T04:24:12.805Z,16.83
2022-12-08T04:26:41.338Z,17.37
2022-12-08T04:29:11.322Z,16.57
2022-12-08T04:31:39.945Z,17.43
2022-12-08T04:34:08.649Z,16.97
2022-12-08T04:36:37.349Z,16.67
2022-12-08T04:39:05.907Z,17.27
2022-12-08T04:41:34.939Z,16.37
2022-12-08T04:44:03.589Z,16.40
2022-12-08T04:46:35.177Z,16.10
2022-12-08T04:49:05.529Z,16.40
2022-12-08T04:51:34.260Z,17.60
2022-12-08T04:54:03.107Z,16.10
2022-12-08T04:56:32.032Z,16.10
2022-12-08T04:59:00.613Z,16.07
2022-12-08T05:01:29.270Z,16.60
2022-12-08T05:03:59.796Z,16.33
2022-12-08T05:06:28.604Z,15.97
2022-12-08T05:08:57.970Z,16.97
2022-12-08T05:11:26.516Z,17.00
2022-12-08T05:13:55.312Z,16.27
2022-12-08T05:16:24.045Z,16.40
2022-12-08T05:18:52.748Z,17.33
2022-12-08T05:21:22.889Z,16.17
2022-12-08T05:23:51.571Z,16.57
2022-12-08T05:26:20.278Z,17.37
2022-12-08T05:28:48.872Z,16.40
2022-12-08T05:31:18.782Z,16.23
2022-12-08T05:33:47.707Z,16.63
2022-12-08T05:36:17.373Z,17.13
2022-12-08T05:38:48.133Z,17.97
2022-12-08T05:41:19.475Z,17.37
2022-12-08T05:43:49.193Z,17.63
2022-12-08T05:46:19.138Z,17.07
2022-12-08T05:48:47.908Z,17.70
2022-12-08T05:51:20.376Z,18.13
2022-12-08T05:53:52.281Z,18.17
2022-12-08T05:56:21.872Z,18.20
2022-12-08T05:58:50.593Z,18.40
2022-12-08T06:01:23.827Z,17.80
2022-12-08T06:03:52.750Z,18.40
2022-12-08T06:06:22.248Z,18.80
2022-12-08T06:08:53.087Z,17.93
2022-12-08T06:11:23.293Z,17.83
2022-12-08T06:13:52.875Z,18.43
2022-12-08T06:16:21.874Z,16.97
2022-12-08T06:18:50.751Z,17.07
2022-12-08T06:21:20.339Z,18.40
2022-12-08T06:23:51.645Z,18.63
2022-12-08T06:26:20.796Z,17.53
2022-12-08T06:28:50.327Z,17.03
2022-12-08T06:31:20.861Z,17.37
2022-12-08T06:33:50.461Z,17.97
2022-12-08T06:36:21.064Z,16.77
2022-12-08T06:38:51.732Z,17.83
2022-12-08T06:41:20.837Z,17.20
2022-12-08T06:43:49.581Z,16.73
2022-12-08T06:46:20.872Z,17.50
2022-12-08T06:48:50.804Z,18.37
2022-12-08T06:51:22.851Z,17.70
2022-12-08T06:53:52.976Z,16.37
2022-12-08T06:56:24.051Z,17.10
2022-12-08T06:58:53.298Z,16.90
2022-12-08T07:01:22.210Z,17.77
2022-12-08T07:03:51.065Z,16.77
2022-12-08T07:06:23.658Z,16.97
2022-12-08T07:08:54.008Z,17.23
2022-12-08T07:11:23.134Z,17.07
2022-12-08T07:13:52.443Z,17.63
2022-12-08T07:16:21.435Z,17.57
2022-12-08T07:18:52.974Z,16.07
2022-12-08T07:21:21.797Z,17.13
2022-12-08T07:23:57.598Z,17.53
2022-12-08T07:26:27.546Z,17.30
2022-12-08T07:28:56.338Z,17.03
2022-12-08T07:31:26.711Z,16.90
2022-12-08T07:33:56.285Z,15.80
2022-12-08T07:36:25.796Z,17.40
2022-12-08T07:38:55.910Z,16.17
2022-12-08T07:41:26.781Z,16.77
2022-12-08T07:43:57.889Z,16.20
2022-12-08T07:46:27.700Z,16.57
2022-12-08T07:48:57.278Z,16.80
2022-12-08T07:51:26.271Z,16.67
2022-12-08T07:53:56.335Z,16.10
2022-12-08T07:56:25.671Z,15.50
2022-12-08T07:58:54.618Z,16.70
2022-12-08T08:01:26.019Z,16.27
2022-12-08T08:03:56.337Z,15.97
2022-12-08T08:06:25.614Z,15.87
2022-12-08T08:08:56.124Z,15.97
2022-12-08T08:11:25.152Z,15.57
2022-12-08T08:13:54.607Z,15.23
2022-12-08T08:16:23.420Z,16.27
2022-12-08T08:18:52.870Z,16.03
2022-12-08T08:21:44.373Z,15.63
2022-12-08T08:24:13.118Z,14.83
2022-12-08T08:26:41.868Z,14.63
2022-12-08T08:29:10.595Z,15.03
2022-12-08T08:31:39.308Z,15.23
2022-12-08T08:34:09.227Z,14.20
2022-12-08T08:36:37.950Z,15.60
2022-12-08T08:39:06.942Z,14.47
2022-12-08T08:41:37.387Z,14.40
2022-12-08T08:44:06.687Z,14.33
2022-12-08T08:46:35.582Z,15.63
2022-12-08T08:49:04.400Z,14.30
2022-12-08T08:51:33.160Z,13.97
2022-12-08T08:54:01.838Z,14.07
2022-12-08T08:56:30.572Z,13.87
2022-12-08T08:59:00.779Z,14.13
2022-12-08T09:01:30.271Z,14.63
2022-12-08T09:03:59.062Z,14.73
2022-12-08T09:06:28.807Z,14.10
2022-12-08T09:08:57.871Z,14.17
2022-12-08T09:11:26.593Z,14.27
2022-12-08T09:13:55.993Z,13.50
2022-12-08T09:16:26.365Z,14.17
2022-12-08T09:18:55.581Z,14.17
2022-12-08T09:21:26.737Z,14.00
2022-12-08T09:23:57.297Z,14.07
2022-12-08T09:26:26.897Z,13.47
2022-12-08T09:28:57.465Z,14.13
2022-12-08T09:31:27.721Z,13.03
2022-12-08T09:33:56.502Z,12.80
2022-12-08T09:36:25.211Z,13.37
2022-12-08T09:38:54.899Z,12.87
2022-12-08T09:41:37.909Z,12.57
2022-12-08T09:44:34.088Z,13.33
2022-12-08T09:47:06.975Z,13.27
2022-12-08T09:49:41.046Z,13.30
2022-12-08T09:52:17.187Z,13.50
2022-12-08T09:54:46.556Z,13.30
2022-12-08T09:57:19.878Z,13.00
2022-12-08T09:59:53.008Z,12.70
2022-12-08T10:02:25.989Z,11.90
2022-12-08T10:04:57.710Z,12.70
2022-12-08T10:07:35.207Z,11.80
2022-12-08T10:10:13.350Z,12.43
2022-12-08T10:12:47.840Z,11.97
2022-12-08T10:15:34.488Z,10.90
2022-12-08T10:18:15.204Z,11.80
2022-12-08T10:20:46.216Z,11.30
2022-12-08T10:23:25.778Z,10.20
2022-12-08T10:26:01.213Z,10.20
2022-12-08T10:28:30.036Z,10.23
2022-12-08T10:30:58.661Z,9.57
2022-12-08T10:33:29.729Z,9.93
2022-12-08T10:36:00.823Z,9.67
2022-12-08T10:38:33.021Z,8.77
2022-12-08T10:41:06.436Z,9.50
2022-12-08T10:43:37.263Z,9.07
2022-12-08T10:46:14.489Z,9.03
2022-12-08T10:48:53.287Z,10.17
2022-12-08T10:51:31.198Z,9.03
2022-12-08T10:53:59.721Z,8.63
2022-12-08T10:56:30.298Z,8.47
2022-12-08T10:59:15.611Z,8.53
2022-12-08T11:01:48.456Z,9.00
2022-12-08T11:04:21.235Z,8.53
2022-12-08T11:06:51.221Z,9.07
2022-12-08T11:09:39.091Z,8.80
2022-12-08T11:12:15.801Z,8.87
2022-12-08T11:14:56.240Z,8.23
2022-12-08T11:17:27.679Z,8.83
2022-12-08T11:20:03.968Z,8.97
2022-12-08T11:22:35.041Z,8.70
2022-12-08T11:25:11.513Z,9.20
2022-12-08T11:27:43.555Z,8.63
2022-12-08T11:30:17.771Z,9.27
2022-12-08T11:32:49.255Z,8.67
2022-12-08T11:35:26.956Z,8.60
2022-12-08T11:38:19.880Z,8.97
2022-12-08T11:40:51.630Z,9.40
2022-12-08T11:43:26.683Z,8.80
2022-12-08T11:46:01.314Z,8.53
2022-12-08T11:48:37.048Z,9.27
2022-12-08T11:51:14.069Z,8.60
2022-12-08T11:53:48.811Z,8.53
2022-12-08T11:56:23.046Z,9.40
2022-12-08T11:58:56.211Z,8.63
2022-12-08T12:01:27.182Z,8.97
2022-12-08T12:04:08.058Z,9.23
2022-12-08T12:07:08.311Z,9.70
2022-12-08T12:09:47.358Z,8.73
2022-12-08T12:12:28.937Z,9.07
2022-12-08T12:15:24.767Z,8.37
2022-12-08T12:17:56.817Z,9.07
2022-12-08T12:20:29.692Z,8.77
2022-12-08T12:23:06.006Z,8.23
2022-12-08T12:25:36.911Z,8.80
2022-12-08T12:28:09.150Z,9.17
2022-12-08T12:30:54.703Z,8.90
2022-12-08T12:33:24.782Z,9.07
2022-12-08T12:35:57.167Z,8.97
2022-12-08T12:38:50.284Z,8.50
2022-12-08T12:41:25.685Z,8.57
2022-12-08T12:44:24.596Z,9.47
2022-12-08T12:47:01.184Z,9.13
2022-12-08T12:50:07.022Z,9.67
2022-12-08T12:52:46.435Z,9.37
2022-12-08T12:55:29.826Z,9.07
2022-12-08T12:58:00.047Z,9.40
2022-12-08T13:00:29.480Z,8.70
2022-12-08T13:02:59.881Z,8.63
2022-12-08T13:05:31.668Z,8.83
2022-12-08T13:08:04.200Z,9.40
2022-12-08T13:10:36.766Z,9.67
2022-12-08T13:13:09.111Z,9.73
2022-12-08T13:15:39.973Z,10.07
2022-12-08T13:18:18.187Z,9.30
2022-12-08T13:20:50.244Z,9.67
2022-12-08T13:23:43.365Z,9.50
2022-12-08T13:26:20.701Z,9.53
2022-12-08T13:29:24.028Z,8.80
2022-12-08T13:31:54.931Z,8.90
2022-12-08T13:34:35.162Z,8.13
2022-12-08T13:37:20.074Z,8.47
2022-12-08T13:39:53.321Z,8.33
2022-12-08T13:42:31.840Z,8.13
2022-12-08T13:45:43.543Z,7.83
2022-12-08T13:48:23.384Z,8.37
2022-12-08T13:59:34.452Z,9.47
2022-12-08T14:02:06.807Z,8.23
2022-12-08T14:05:09.143Z,9.93
2022-12-08T14:07:24.666Z,10.70
2022-12-08T14:10:43.979Z,10.57
2022-12-08T14:13:15.117Z,9.70
2022-12-08T14:15:45.388Z,9.93
2022-12-08T14:18:25.915Z,11.13
2022-12-08T14:23:51.904Z,9.50
2022-12-08T14:26:20.580Z,9.07
2022-12-08T14:28:51.443Z,8.60
2022-12-08T14:31:21.688Z,8.60
2022-12-08T14:33:56.137Z,9.77
2022-12-08T14:36:26.069Z,8.57
2022-12-08T14:38:57.166Z,8.97
2022-12-08T14:41:34.176Z,9.03
2022-12-08T14:44:03.462Z,7.93
2022-12-08T14:46:33.602Z,7.87
2022-12-08T14:49:02.410Z,8.27
2022-12-08T14:51:33.104Z,8.73
2022-12-08T14:54:04.138Z,9.07
2022-12-08T14:56:38.250Z,7.80
2022-12-08T14:59:14.455Z,9.07
2022-12-08T15:01:45.484Z,7.33
2022-12-08T15:04:20.400Z,7.77
2022-12-08T15:06:54.523Z,8.77
2022-12-08T15:09:33.243Z,8.67
2022-12-08T15:12:03.103Z,9.00
2022-12-08T15:14:34.403Z,8.50
2022-12-08T15:17:05.334Z,8.10
2022-12-08T15:19:35.971Z,8.93
2022-12-08T15:22:23.258Z,8.70
2022-12-08T15:24:52.112Z,8.37
2022-12-08T15:27:23.116Z,8.03
2022-12-08T15:29:52.175Z,8.30
2022-12-08T15:32:24.307Z,8.47
2022-12-08T15:34:53.030Z,8.20
2022-12-08T15:37:23.834Z,7.90
2022-12-08T15:39:53.389Z,8.30
2022-12-08T15:42:23.771Z,7.90
2022-12-08T15:44:52.442Z,8.20
2022-12-08T15:47:25.028Z,8.30
2022-12-08T15:49:54.298Z,8.03
2022-12-08T15:52:25.386Z,7.73
2022-12-08T15:54:54.879Z,8.00
2022-12-08T15:57:53.529Z,8.10
2022-12-08T16:00:52.482Z,8.07
2022-12-08T16:07:12.491Z,8.53
2022-12-08T16:09:13.494Z,9.23
2022-12-08T16:12:09.621Z,9.57
2022-12-08T16:17:30.797Z,9.13
2022-12-08T16:20:08.908Z,9.00
2022-12-08T16:23:03.105Z,9.73
2022-12-08T16:25:33.349Z,8.87
2022-12-08T16:28:45.077Z,9.50
2022-12-08T16:31:00.206Z,9.80
2022-12-08T16:33:28.906Z,9.63
2022-12-08T16:35:59.229Z,9.97
2022-12-08T16:38:28.008Z,10.00
2022-12-08T16:41:17.189Z,10.97
2022-12-08T16:43:45.842Z,9.53
2022-12-08T16:46:20.673Z,10.67
2022-12-08T16:48:49.421Z,10.10
2022-12-08T16:51:26.491Z,9.87
2022-12-08T16:53:55.756Z,10.37
2022-12-08T16:56:30.591Z,9.93
2022-12-08T16:59:02.456Z,10.90
2022-12-08T17:01:59.091Z,9.90
2022-12-08T17:04:32.133Z,9.47
2022-12-08T17:07:02.523Z,10.83
2022-12-08T17:09:32.884Z,11.10
2022-12-08T17:12:04.141Z,10.67
2022-12-08T17:14:35.831Z,9.87
2022-12-08T17:17:04.773Z,10.17
2022-12-08T17:19:37.395Z,9.80
2022-12-08T17:22:07.596Z,10.27
2022-12-08T17:24:36.480Z,11.33
2022-12-08T17:27:06.423Z,10.53
2022-12-08T17:29:35.656Z,12.40
2022-12-08T17:32:04.366Z,11.30
2022-12-08T17:34:33.059Z,11.03
2022-12-08T17:37:01.846Z,11.60
2022-12-08T17:39:32.269Z,11.83
2022-12-08T17:42:01.907Z,11.07
2022-12-08T17:44:31.103Z,10.20
2022-12-08T17:46:59.802Z,10.03
2022-12-08T17:49:29.956Z,9.90
2022-12-08T17:52:00.585Z,11.13
2022-12-08T17:54:29.894Z,10.60
2022-12-08T17:57:01.342Z,9.77
2022-12-08T17:59:31.065Z,10.57
2022-12-08T18:02:00.416Z,9.83
2022-12-08T18:04:30.271Z,10.57
2022-12-08T18:07:01.419Z,10.00
2022-12-08T18:09:32.400Z,9.80
2022-12-08T18:12:29.719Z,10.40
2022-12-08T18:14:58.431Z,9.97
2022-12-08T18:17:27.234Z,10.20
2022-12-08T18:19:56.125Z,10.33
2022-12-08T18:22:24.913Z,10.97
2022-12-08T18:24:53.573Z,9.50
2022-12-08T18:27:22.291Z,10.00
2022-12-08T18:29:53.151Z,10.37
2022-12-08T18:32:23.842Z,10.00
2022-12-08T18:34:53.636Z,9.57
2022-12-08T18:37:22.733Z,9.47
2022-12-08T18:39:52.036Z,10.13
2022-12-08T18:42:46.559Z,10.37
2022-12-08T18:45:22.594Z,10.33
2022-12-08T18:47:53.107Z,10.37
2022-12-08T18:50:22.101Z,11.13
2022-12-08T18:52:50.864Z,10.40
2022-12-08T18:55:19.680Z,11.00
2022-12-08T18:57:48.575Z,11.37
2022-12-08T19:00:22.841Z,11.87
2022-12-08T19:02:57.045Z,12.20
2022-12-08T19:05:26.103Z,12.93
2022-12-08T19:08:20.875Z,12.90
2022-12-08T19:10:50.068Z,12.33
2022-12-08T19:13:18.772Z,12.80
2022-12-08T19:16:16.163Z,12.97
2022-12-08T19:18:44.942Z,12.63
2022-12-08T19:21:15.003Z,12.07
2022-12-08T19:23:43.767Z,13.13
2022-12-08T19:26:13.471Z,12.70
2022-12-08T19:28:42.329Z,12.50
2022-12-08T19:31:11.763Z,13.23
2022-12-08T19:33:43.227Z,12.50
2022-12-08T19:36:16.423Z,13.97
2022-12-08T19:39:03.370Z,12.57
2022-12-08T19:42:15.799Z,12.87
2022-12-08T19:44:55.092Z,13.40
2022-12-08T19:47:27.396Z,17.20
2022-12-08T19:50:19.847Z,19.40
2022-12-08T19:52:48.542Z,14.97
2022-12-08T19:55:17.682Z,14.40
2022-12-08T19:57:46.528Z,14.80
2022-12-08T20:00:16.003Z,15.27
2022-12-08T20:02:46.139Z,14.87
2022-12-08T20:05:18.034Z,14.93
2022-12-08T20:07:47.215Z,14.77
2022-12-08T20:10:43.123Z,15.03
2022-12-08T20:13:30.520Z,14.13
2022-12-08T20:15:59.345Z,14.80
2022-12-08T20:19:24.183Z,14.40
2022-12-08T20:21:54.262Z,13.30
2022-12-08T20:24:22.961Z,13.27
2022-12-08T20:26:51.965Z,12.77
2022-12-08T20:29:20.640Z,13.53
2022-12-08T20:31:49.502Z,13.57
2022-12-08T20:34:33.323Z,13.27
2022-12-08T20:37:08.137Z,12.80
2022-12-08T20:39:36.944Z,13.37
2022-12-08T20:42:06.107Z,13.23
2022-12-08T20:44:34.972Z,13.53
2022-12-08T20:47:03.889Z,13.37
2022-12-08T20:49:34.727Z,14.17
2022-12-08T20:52:07.084Z,13.90
2022-12-08T20:54:36.490Z,13.67
2022-12-08T20:57:05.489Z,13.13
2022-12-08T20:59:34.846Z,12.03
2022-12-08T21:02:06.323Z,12.23
2022-12-08T21:04:35.268Z,11.50
2022-12-08T21:07:05.837Z,12.07
2022-12-08T21:09:37.357Z,11.47
2022-12-08T21:12:06.984Z,11.53
2022-12-08T21:14:35.713Z,11.40
2022-12-08T21:17:04.849Z,11.30
2022-12-08T21:19:33.811Z,10.73
2022-12-08T21:22:02.528Z,11.23
2022-12-08T21:24:34.674Z,11.03
2022-12-08T21:27:03.896Z,10.07
2022-12-08T21:29:32.860Z,10.70
2022-12-08T21:32:02.123Z,11.63
2022-12-08T21:34:32.012Z,11.27
2022-12-08T21:37:00.958Z,11.30
2022-12-08T21:39:30.802Z,11.57
2022-12-08T21:42:21.491Z,11.13
2022-12-08T21:44:56.944Z,12.03
2022-12-08T21:47:25.778Z,12.53
2022-12-08T21:49:54.797Z,13.10
2022-12-08T21:52:23.630Z,14.23
2022-12-08T21:54:52.718Z,14.50
2022-12-08T21:57:23.374Z,14.00
2022-12-08T21:59:52.894Z,15.30
2022-12-08T22:02:22.892Z,14.43
2022-12-08T22:04:52.944Z,13.90
2022-12-08T22:07:22.524Z,14.23
2022-12-08T22:09:51.662Z,14.00
2022-12-08T22:12:20.571Z,13.47
2022-12-08T22:14:51.168Z,13.87
2022-12-08T22:17:20.204Z,15.23
2022-12-08T22:19:49.154Z,14.93
2022-12-08T22:22:18.082Z,15.73
2022-12-08T22:24:46.744Z,14.90
2022-12-08T22:27:15.752Z,13.60
2022-12-08T22:29:44.616Z,14.23
2022-12-08T22:32:14.959Z,14.30
2022-12-08T22:34:43.750Z,13.70
2022-12-08T22:37:12.591Z,14.10
2022-12-08T22:39:41.284Z,14.03
2022-12-08T22:42:09.942Z,15.23
2022-12-08T22:44:38.697Z,15.10
2022-12-08T22:47:07.655Z,15.77
2022-12-08T22:49:37.777Z,15.70
2022-12-08T22:52:06.714Z,15.87
2022-12-08T22:54:35.670Z,16.27
2022-12-08T22:57:04.281Z,15.70
2022-12-08T22:59:33.750Z,15.37
2022-12-08T23:02:02.674Z,14.70
2022-12-08T23:04:31.559Z,15.37
2022-12-08T23:07:02.041Z,15.73
2022-12-08T23:09:31.225Z,15.93
2022-12-08T23:12:00.066Z,16.50
2022-12-08T23:14:28.793Z,16.37
2022-12-08T23:16:57.652Z,17.13
2022-12-08T23:19:26.821Z,16.70
2022-12-08T23:21:55.615Z,15.83
2022-12-08T23:24:25.828Z,16.30
2022-12-08T23:26:54.485Z,17.50
2022-12-08T23:29:23.207Z,17.73
2022-12-08T23:31:52.152Z,17.40
2022-12-08T23:34:21.007Z,17.60
2022-12-08T23:36:49.859Z,17.37
2022-12-08T23:39:18.715Z,18.00
2022-12-08T23:41:48.851Z,17.10
2022-12-08T23:44:17.751Z,17.60
2022-12-08T23:46:46.695Z,17.27
2022-12-08T23:49:15.557Z,18.77
2022-12-08T23:51:44.305Z,17.30
2022-12-08T23:54:12.941Z,17.50
2022-12-08T23:56:41.780Z,18.17
2022-12-08T23:59:12.154Z,17.97
